sensor_id;sensor_type;location;lat;lon;timestamp;temperature;humidity
11264;DHT22;5689;48.798;9.070;2022-12-18T00:00:06;-10.20;99.90
11264;DHT22;5689;48.798;9.070;2022-12-18T00:02:39;-10.10;99.90
11264;DHT22;5689;48.798;9.070;2022-12-18T00:05:07;-10.10;99.90
11264;DHT22;5689;48.798;9.070;2022-12-18T00:07:35;-10.20;99.90
11264;DHT22;5689;48.798;9.070;2022-12-18T00:10:05;-10.20;99.90
11264;DHT22;5689;48.798;9.070;2022-12-18T00:12:33;-9.90;99.90
11264;DHT22;5689;48.798;9.070;2022-12-18T00:15:01;-10.00;99.90
11264;DHT22;5689;48.798;9.070;2022-12-18T00:17:31;-10.00;99.90
11264;DHT22;5689;48.798;9.070;2022-12-18T00:19:58;-10.10;99.90
11264;DHT22;5689;48.798;9.070;2022-12-18T00:22:26;-10.20;99.90
11264;DHT22;5689;48.798;9.070;2022-12-18T00:24:54;-10.20;99.90
11264;DHT22;5689;48.798;9.070;2022-12-18T00:27:22;-10.30;99.90
11264;DHT22;5689;48.798;9.070;2022-12-18T00:29:50;-10.30;99.90
11264;DHT22;5689;48.798;9.070;2022-12-18T00:32:18;-10.20;99.90
11264;DHT22;5689;48.798;9.070;2022-12-18T00:34:48;-10.20;99.90
11264;DHT22;5689;48.798;9.070;2022-12-18T00:37:16;-10.10;99.90
11264;DHT22;5689;48.798;9.070;2022-12-18T00:39:50;-10.30;99.90
11264;DHT22;5689;48.798;9.070;2022-12-18T00:42:19;-10.20;99.90
11264;DHT22;5689;48.798;9.070;2022-12-18T00:45:05;-10.40;99.90
11264;DHT22;5689;48.798;9.070;2022-12-18T00:47:36;-10.40;99.90
11264;DHT22;5689;48.798;9.070;2022-12-18T00:50:07;-10.30;99.90
11264;DHT22;5689;48.798;9.070;2022-12-18T00:52:35;-10.30;99.90
11264;DHT22;5689;48.798;9.070;2022-12-18T00:55:11;-10.40;99.90
11264;DHT22;5689;48.798;9.070;2022-12-18T00:57:39;-10.40;99.90
11264;DHT22;5689;48.798;9.070;2022-12-18T01:00:10;-10.50;99.90
11264;DHT22;5689;48.798;9.070;2022-12-18T01:02:39;-10.20;99.90
11264;DHT22;5689;48.798;9.070;2022-12-18T01:05:10;-10.30;99.90
11264;DHT22;5689;48.798;9.070;2022-12-18T01:07:39;-10.30;99.90
11264;DHT22;5689;48.798;9.070;2022-12-18T01:10:09;-10.10;99.90
11264;DHT22;5689;48.798;9.070;2022-12-18T01:12:38;-10.20;99.90
11264;DHT22;5689;48.798;9.070;2022-12-18T01:15:14;-10.10;99.90
11264;DHT22;5689;48.798;9.070;2022-12-18T01:17:42;-10.20;99.90
11264;DHT22;5689;48.798;9.070;2022-12-18T01:20:13;-10.30;99.90
11264;DHT22;5689;48.798;9.070;2022-12-18T01:22:41;-10.30;99.90
11264;DHT22;5689;48.798;9.070;2022-12-18T01:25:09;-10.40;99.90
11264;DHT22;5689;48.798;9.070;2022-12-18T01:27:37;-10.40;99.90
11264;DHT22;5689;48.798;9.070;2022-12-18T01:30:06;-10.50;99.90
11264;DHT22;5689;48.798;9.070;2022-12-18T01:32:35;-10.60;99.90
11264;DHT22;5689;48.798;9.070;2022-12-18T01:35:03;-10.60;99.90
11264;DHT22;5689;48.798;9.070;2022-12-18T01:37:33;-10.40;99.90
11264;DHT22;5689;48.798;9.070;2022-12-18T01:40:01;-10.40;99.90
11264;DHT22;5689;48.798;9.070;2022-12-18T01:42:30;-10.30;99.90
11264;DHT22;5689;48.798;9.070;2022-12-18T01:45:05;-10.20;99.90
11264;DHT22;5689;48.798;9.070;2022-12-18T01:47:36;-10.10;99.90
11264;DHT22;5689;48.798;9.070;2022-12-18T01:50:09;-10.20;99.90
11264;DHT22;5689;48.798;9.070;2022-12-18T01:52:41;-10.00;99.90
11264;DHT22;5689;48.798;9.070;2022-12-18T01:55:11;-9.90;99.90
11264;DHT22;5689;48.798;9.070;2022-12-18T01:57:40;-9.90;99.90
11264;DHT22;5689;48.798;9.070;2022-12-18T02:00:11;-9.90;99.90
11264;DHT22;5689;48.798;9.070;2022-12-18T02:02:40;-9.90;99.90
11264;DHT22;5689;48.798;9.070;2022-12-18T02:05:10;-9.70;99.90
11264;DHT22;5689;48.798;9.070;2022-12-18T02:07:53;-9.70;99.90
11264;DHT22;5689;48.798;9.070;2022-12-18T02:10:29;-9.70;99.90
11264;DHT22;5689;48.798;9.070;2022-12-18T02:13:05;-9.60;99.90
11264;DHT22;5689;48.798;9.070;2022-12-18T02:15:40;-9.70;99.90
11264;DHT22;5689;48.798;9.070;2022-12-18T02:18:12;-9.50;99.90
11264;DHT22;5689;48.798;9.070;2022-12-18T02:20:45;-9.40;99.90
11264;DHT22;5689;48.798;9.070;2022-12-18T02:23:28;-9.40;99.90
11264;DHT22;5689;48.798;9.070;2022-12-18T02:26:07;-9.30;99.90
11264;DHT22;5689;48.798;9.070;2022-12-18T02:28:42;-9.50;99.90
11264;DHT22;5689;48.798;9.070;2022-12-18T02:31:13;-9.30;99.90
11264;DHT22;5689;48.798;9.070;2022-12-18T02:33:43;-9.30;99.90
11264;DHT22;5689;48.798;9.070;2022-12-18T02:36:13;-9.40;99.90
11264;DHT22;5689;48.798;9.070;2022-12-18T02:38:44;-9.60;99.90
11264;DHT22;5689;48.798;9.070;2022-12-18T02:41:16;-9.60;99.90
11264;DHT22;5689;48.798;9.070;2022-12-18T02:43:52;-9.60;99.90
11264;DHT22;5689;48.798;9.070;2022-12-18T02:46:29;-9.70;99.90
11264;DHT22;5689;48.798;9.070;2022-12-18T02:49:09;-9.70;99.90
11264;DHT22;5689;48.798;9.070;2022-12-18T02:51:47;-9.80;99.90
11264;DHT22;5689;48.798;9.070;2022-12-18T02:54:29;-9.80;99.90
11264;DHT22;5689;48.798;9.070;2022-12-18T02:57:08;-9.80;99.90
11264;DHT22;5689;48.798;9.070;2022-12-18T02:59:41;-9.30;99.90
11264;DHT22;5689;48.798;9.070;2022-12-18T03:02:20;-9.70;99.90
11264;DHT22;5689;48.798;9.070;2022-12-18T03:04:53;-9.70;99.90
11264;DHT22;5689;48.798;9.070;2022-12-18T03:07:28;-9.60;99.90
11264;DHT22;5689;48.798;9.070;2022-12-18T03:10:01;-9.50;99.90
11264;DHT22;5689;48.798;9.070;2022-12-18T03:12:34;-9.40;99.90
11264;DHT22;5689;48.798;9.070;2022-12-18T03:15:07;-9.50;99.90
11264;DHT22;5689;48.798;9.070;2022-12-18T03:17:39;-9.50;99.90
11264;DHT22;5689;48.798;9.070;2022-12-18T03:20:13;-9.60;99.90
11264;DHT22;5689;48.798;9.070;2022-12-18T03:22:43;-9.60;99.90
11264;DHT22;5689;48.798;9.070;2022-12-18T03:25:14;-9.60;99.90
11264;DHT22;5689;48.798;9.070;2022-12-18T03:27:49;-9.50;99.90
11264;DHT22;5689;48.798;9.070;2022-12-18T03:30:19;-9.50;99.90
11264;DHT22;5689;48.798;9.070;2022-12-18T03:32:50;-9.70;99.90
11264;DHT22;5689;48.798;9.070;2022-12-18T03:35:26;-9.70;99.90
11264;DHT22;5689;48.798;9.070;2022-12-18T03:37:57;-9.60;99.90
11264;DHT22;5689;48.798;9.070;2022-12-18T03:40:29;-9.70;99.90
11264;DHT22;5689;48.798;9.070;2022-12-18T03:43:03;-9.80;99.90
11264;DHT22;5689;48.798;9.070;2022-12-18T03:45:36;-9.60;99.90
11264;DHT22;5689;48.798;9.070;2022-12-18T03:48:08;-9.60;99.90
11264;DHT22;5689;48.798;9.070;2022-12-18T03:50:45;-9.60;99.90
11264;DHT22;5689;48.798;9.070;2022-12-18T03:53:25;-9.70;99.90
11264;DHT22;5689;48.798;9.070;2022-12-18T03:55:59;-9.90;99.90
11264;DHT22;5689;48.798;9.070;2022-12-18T03:58:36;-10.00;99.90
11264;DHT22;5689;48.798;9.070;2022-12-18T04:01:29;-10.10;99.90
11264;DHT22;5689;48.798;9.070;2022-12-18T04:04:00;-10.10;99.90
11264;DHT22;5689;48.798;9.070;2022-12-18T04:06:32;-9.80;99.90
11264;DHT22;5689;48.798;9.070;2022-12-18T04:09:01;-9.90;99.90
11264;DHT22;5689;48.798;9.070;2022-12-18T04:11:31;-10.00;99.90
11264;DHT22;5689;48.798;9.070;2022-12-18T04:14:03;-10.10;99.90
11264;DHT22;5689;48.798;9.070;2022-12-18T04:16:33;-10.10;99.90
11264;DHT22;5689;48.798;9.070;2022-12-18T04:19:03;-10.00;99.90
11264;DHT22;5689;48.798;9.070;2022-12-18T04:21:37;-10.00;99.90
11264;DHT22;5689;48.798;9.070;2022-12-18T04:24:06;-10.20;99.90
11264;DHT22;5689;48.798;9.070;2022-12-18T04:26:37;-10.30;99.90
11264;DHT22;5689;48.798;9.070;2022-12-18T04:29:13;-10.40;99.90
11264;DHT22;5689;48.798;9.070;2022-12-18T04:31:41;-10.40;99.90
11264;DHT22;5689;48.798;9.070;2022-12-18T04:34:10;-10.30;99.90
11264;DHT22;5689;48.798;9.070;2022-12-18T04:36:44;-10.20;99.90
11264;DHT22;5689;48.798;9.070;2022-12-18T04:39:13;-9.70;99.90
11264;DHT22;5689;48.798;9.070;2022-12-18T04:41:42;-9.80;99.90
11264;DHT22;5689;48.798;9.070;2022-12-18T04:44:13;-9.70;99.90
11264;DHT22;5689;48.798;9.070;2022-12-18T04:46:42;-9.80;99.90
11264;DHT22;5689;48.798;9.070;2022-12-18T04:49:10;-9.70;99.90
11264;DHT22;5689;48.798;9.070;2022-12-18T04:51:39;-9.60;99.90
11264;DHT22;5689;48.798;9.070;2022-12-18T04:54:07;-9.70;99.90
11264;DHT22;5689;48.798;9.070;2022-12-18T04:56:35;-9.70;99.90
11264;DHT22;5689;48.798;9.070;2022-12-18T04:59:03;-9.70;99.90
11264;DHT22;5689;48.798;9.070;2022-12-18T05:01:33;-9.80;99.90
11264;DHT22;5689;48.798;9.070;2022-12-18T05:04:01;-9.80;99.90
11264;DHT22;5689;48.798;9.070;2022-12-18T05:06:29;-10.00;99.90
11264;DHT22;5689;48.798;9.070;2022-12-18T05:08:57;-9.90;99.90
11264;DHT22;5689;48.798;9.070;2022-12-18T05:11:25;-9.80;99.90
11264;DHT22;5689;48.798;9.070;2022-12-18T05:13:56;-9.70;99.90
11264;DHT22;5689;48.798;9.070;2022-12-18T05:16:24;-9.60;99.90
11264;DHT22;5689;48.798;9.070;2022-12-18T05:18:53;-9.60;99.90
11264;DHT22;5689;48.798;9.070;2022-12-18T05:21:21;-9.60;99.90
11264;DHT22;5689;48.798;9.070;2022-12-18T05:23:49;-9.80;99.90
11264;DHT22;5689;48.798;9.070;2022-12-18T05:26:18;-10.10;99.90
11264;DHT22;5689;48.798;9.070;2022-12-18T05:28:46;-10.00;99.90
11264;DHT22;5689;48.798;9.070;2022-12-18T05:31:14;-9.90;99.90
11264;DHT22;5689;48.798;9.070;2022-12-18T05:33:42;-10.00;99.90
11264;DHT22;5689;48.798;9.070;2022-12-18T05:36:12;-10.00;99.90
11264;DHT22;5689;48.798;9.070;2022-12-18T05:38:40;-9.90;99.90
11264;DHT22;5689;48.798;9.070;2022-12-18T05:41:08;-9.90;99.90
11264;DHT22;5689;48.798;9.070;2022-12-18T05:43:38;-10.00;99.90
11264;DHT22;5689;48.798;9.070;2022-12-18T05:46:08;-10.00;99.90
11264;DHT22;5689;48.798;9.070;2022-12-18T05:48:38;-10.10;99.90
11264;DHT22;5689;48.798;9.070;2022-12-18T05:51:08;-10.00;99.90
11264;DHT22;5689;48.798;9.070;2022-12-18T05:53:38;-10.20;99.90
11264;DHT22;5689;48.798;9.070;2022-12-18T05:56:09;-10.30;99.90
11264;DHT22;5689;48.798;9.070;2022-12-18T05:58:38;-10.30;99.90
11264;DHT22;5689;48.798;9.070;2022-12-18T06:01:07;-10.50;99.90
11264;DHT22;5689;48.798;9.070;2022-12-18T06:03:36;-10.60;99.90
11264;DHT22;5689;48.798;9.070;2022-12-18T06:06:12;-10.50;99.90
11264;DHT22;5689;48.798;9.070;2022-12-18T06:08:46;-10.60;99.90
11264;DHT22;5689;48.798;9.070;2022-12-18T06:11:17;-10.00;99.90
11264;DHT22;5689;48.798;9.070;2022-12-18T06:13:46;-10.60;99.90
11264;DHT22;5689;48.798;9.070;2022-12-18T06:16:14;-10.60;99.90
11264;DHT22;5689;48.798;9.070;2022-12-18T06:18:42;-10.50;99.90
11264;DHT22;5689;48.798;9.070;2022-12-18T06:21:10;-10.50;99.90
11264;DHT22;5689;48.798;9.070;2022-12-18T06:23:38;-10.50;99.90
11264;DHT22;5689;48.798;9.070;2022-12-18T06:26:09;-10.40;99.90
11264;DHT22;5689;48.798;9.070;2022-12-18T06:28:37;-10.60;99.90
11264;DHT22;5689;48.798;9.070;2022-12-18T06:31:06;-10.70;99.90
11264;DHT22;5689;48.798;9.070;2022-12-18T06:33:35;-10.80;99.90
11264;DHT22;5689;48.798;9.070;2022-12-18T06:36:04;-10.80;99.90
11264;DHT22;5689;48.798;9.070;2022-12-18T06:38:35;-10.80;99.90
11264;DHT22;5689;48.798;9.070;2022-12-18T06:41:08;-10.60;99.90
11264;DHT22;5689;48.798;9.070;2022-12-18T06:43:36;-10.70;99.90
11264;DHT22;5689;48.798;9.070;2022-12-18T06:46:05;-10.80;99.90
11264;DHT22;5689;48.798;9.070;2022-12-18T06:48:33;-10.60;99.90
11264;DHT22;5689;48.798;9.070;2022-12-18T06:51:02;-10.60;99.90
11264;DHT22;5689;48.798;9.070;2022-12-18T06:53:31;-10.60;99.90
11264;DHT22;5689;48.798;9.070;2022-12-18T06:56:00;-10.70;99.90
11264;DHT22;5689;48.798;9.070;2022-12-18T06:58:32;-10.70;99.90
11264;DHT22;5689;48.798;9.070;2022-12-18T07:01:00;-10.70;99.90
11264;DHT22;5689;48.798;9.070;2022-12-18T07:03:28;-10.60;99.90
11264;DHT22;5689;48.798;9.070;2022-12-18T07:05:57;-10.70;99.90
11264;DHT22;5689;48.798;9.070;2022-12-18T07:08:25;-10.60;99.90
11264;DHT22;5689;48.798;9.070;2022-12-18T07:10:53;-10.80;99.90
11264;DHT22;5689;48.798;9.070;2022-12-18T07:13:22;-10.50;99.90
11264;DHT22;5689;48.798;9.070;2022-12-18T07:15:51;-10.30;99.90
11264;DHT22;5689;48.798;9.070;2022-12-18T07:18:19;-10.40;99.90
11264;DHT22;5689;48.798;9.070;2022-12-18T07:20:47;-10.40;99.90
11264;DHT22;5689;48.798;9.070;2022-12-18T07:23:15;-10.40;99.90
11264;DHT22;5689;48.798;9.070;2022-12-18T07:25:43;-10.40;99.90
11264;DHT22;5689;48.798;9.070;2022-12-18T07:28:11;-10.30;99.90
11264;DHT22;5689;48.798;9.070;2022-12-18T07:30:42;-10.30;99.90
11264;DHT22;5689;48.798;9.070;2022-12-18T07:33:12;-10.10;99.90
11264;DHT22;5689;48.798;9.070;2022-12-18T07:35:40;-10.20;99.90
11264;DHT22;5689;48.798;9.070;2022-12-18T07:38:09;-10.10;99.90
11264;DHT22;5689;48.798;9.070;2022-12-18T07:40:37;-10.10;99.90
11264;DHT22;5689;48.798;9.070;2022-12-18T07:43:05;-10.20;99.90
11264;DHT22;5689;48.798;9.070;2022-12-18T07:45:33;-10.10;99.90
11264;DHT22;5689;48.798;9.070;2022-12-18T07:48:01;-10.10;99.90
11264;DHT22;5689;48.798;9.070;2022-12-18T07:50:30;-10.10;99.90
11264;DHT22;5689;48.798;9.070;2022-12-18T07:52:58;-10.20;99.90
11264;DHT22;5689;48.798;9.070;2022-12-18T07:55:30;-10.10;99.90
11264;DHT22;5689;48.798;9.070;2022-12-18T07:58:08;-10.10;99.90
11264;DHT22;5689;48.798;9.070;2022-12-18T08:00:36;-9.90;99.90
11264;DHT22;5689;48.798;9.070;2022-12-18T08:03:04;-9.90;99.90
11264;DHT22;5689;48.798;9.070;2022-12-18T08:05:33;-9.90;99.90
11264;DHT22;5689;48.798;9.070;2022-12-18T08:08:01;-9.80;99.90
11264;DHT22;5689;48.798;9.070;2022-12-18T08:10:29;-9.50;99.90
11264;DHT22;5689;48.798;9.070;2022-12-18T08:12:57;-9.50;99.90
11264;DHT22;5689;48.798;9.070;2022-12-18T08:15:28;-9.40;99.90
11264;DHT22;5689;48.798;9.070;2022-12-18T08:17:56;-9.60;99.90
11264;DHT22;5689;48.798;9.070;2022-12-18T08:20:25;-9.50;99.90
11264;DHT22;5689;48.798;9.070;2022-12-18T08:22:54;-9.20;99.90
11264;DHT22;5689;48.798;9.070;2022-12-18T08:25:24;-9.10;99.90
11264;DHT22;5689;48.798;9.070;2022-12-18T08:27:52;-9.10;99.90
11264;DHT22;5689;48.798;9.070;2022-12-18T08:30:21;-9.00;99.90
11264;DHT22;5689;48.798;9.070;2022-12-18T08:32:51;-9.00;99.90
11264;DHT22;5689;48.798;9.070;2022-12-18T08:35:19;-8.90;99.90
11264;DHT22;5689;48.798;9.070;2022-12-18T08:37:48;-8.70;99.90
11264;DHT22;5689;48.798;9.070;2022-12-18T08:40:17;-8.70;99.90
11264;DHT22;5689;48.798;9.070;2022-12-18T08:42:45;-8.60;99.90
11264;DHT22;5689;48.798;9.070;2022-12-18T08:45:34;-8.50;99.90
11264;DHT22;5689;48.798;9.070;2022-12-18T08:48:02;-8.40;99.90
11264;DHT22;5689;48.798;9.070;2022-12-18T08:50:30;-8.10;99.90
11264;DHT22;5689;48.798;9.070;2022-12-18T08:52:58;-8.00;99.90
11264;DHT22;5689;48.798;9.070;2022-12-18T08:55:27;-7.60;99.90
11264;DHT22;5689;48.798;9.070;2022-12-18T08:57:55;-7.60;99.90
11264;DHT22;5689;48.798;9.070;2022-12-18T09:00:23;-7.60;99.90
11264;DHT22;5689;48.798;9.070;2022-12-18T09:02:51;-7.50;99.90
11264;DHT22;5689;48.798;9.070;2022-12-18T09:05:20;-7.50;99.90
11264;DHT22;5689;48.798;9.070;2022-12-18T09:07:48;-7.30;99.90
11264;DHT22;5689;48.798;9.070;2022-12-18T09:10:16;-7.20;99.90
11264;DHT22;5689;48.798;9.070;2022-12-18T09:12:46;-7.20;99.90
11264;DHT22;5689;48.798;9.070;2022-12-18T09:15:14;-7.10;99.90
11264;DHT22;5689;48.798;9.070;2022-12-18T09:17:42;-6.90;99.90
11264;DHT22;5689;48.798;9.070;2022-12-18T09:20:10;-6.60;99.90
11264;DHT22;5689;48.798;9.070;2022-12-18T09:22:38;-6.40;99.90
11264;DHT22;5689;48.798;9.070;2022-12-18T09:25:06;-6.40;99.90
11264;DHT22;5689;48.798;9.070;2022-12-18T09:27:35;-6.20;99.90
11264;DHT22;5689;48.798;9.070;2022-12-18T09:30:06;-6.10;99.90
11264;DHT22;5689;48.798;9.070;2022-12-18T09:32:34;-6.00;99.90
11264;DHT22;5689;48.798;9.070;2022-12-18T09:35:03;-5.90;99.90
11264;DHT22;5689;48.798;9.070;2022-12-18T09:37:31;-5.50;99.90
11264;DHT22;5689;48.798;9.070;2022-12-18T09:39:59;-5.30;99.90
11264;DHT22;5689;48.798;9.070;2022-12-18T09:42:27;-5.30;99.90
11264;DHT22;5689;48.798;9.070;2022-12-18T09:44:56;-5.20;99.90
11264;DHT22;5689;48.798;9.070;2022-12-18T09:47:28;-5.00;99.90
11264;DHT22;5689;48.798;9.070;2022-12-18T09:50:01;-4.70;99.90
11264;DHT22;5689;48.798;9.070;2022-12-18T09:52:35;-4.50;99.90
11264;DHT22;5689;48.798;9.070;2022-12-18T09:55:11;-4.20;99.90
11264;DHT22;5689;48.798;9.070;2022-12-18T09:57:47;-4.00;99.90
11264;DHT22;5689;48.798;9.070;2022-12-18T10:00:19;-3.90;99.90
11264;DHT22;5689;48.798;9.070;2022-12-18T10:02:50;-3.90;99.90
11264;DHT22;5689;48.798;9.070;2022-12-18T10:05:31;-3.70;99.90
11264;DHT22;5689;48.798;9.070;2022-12-18T10:08:08;-3.50;99.90
11264;DHT22;5689;48.798;9.070;2022-12-18T10:10:42;-3.20;99.90
11264;DHT22;5689;48.798;9.070;2022-12-18T10:13:21;-3.20;99.90
11264;DHT22;5689;48.798;9.070;2022-12-18T10:15:58;-3.00;99.90
11264;DHT22;5689;48.798;9.070;2022-12-18T10:18:37;-2.70;99.90
11264;DHT22;5689;48.798;9.070;2022-12-18T10:21:11;-2.40;99.90
11264;DHT22;5689;48.798;9.070;2022-12-18T10:23:45;-2.20;99.90
11264;DHT22;5689;48.798;9.070;2022-12-18T10:26:16;-2.60;99.90
11264;DHT22;5689;48.798;9.070;2022-12-18T10:28:45;-2.20;99.90
11264;DHT22;5689;48.798;9.070;2022-12-18T10:31:16;-1.90;99.90
11264;DHT22;5689;48.798;9.070;2022-12-18T10:33:46;-1.10;99.90
11264;DHT22;5689;48.798;9.070;2022-12-18T10:36:15;-0.20;99.90
11264;DHT22;5689;48.798;9.070;2022-12-18T10:38:43;-0.10;99.90
11264;DHT22;5689;48.798;9.070;2022-12-18T10:41:24;-0.40;99.90
11264;DHT22;5689;48.798;9.070;2022-12-18T10:44:11;0.80;99.90
11264;DHT22;5689;48.798;9.070;2022-12-18T10:46:39;3.60;99.90
11264;DHT22;5689;48.798;9.070;2022-12-18T10:49:19;6.10;99.90
11264;DHT22;5689;48.798;9.070;2022-12-18T10:51:49;7.70;95.50
11264;DHT22;5689;48.798;9.070;2022-12-18T10:54:21;8.20;88.90
11264;DHT22;5689;48.798;9.070;2022-12-18T10:56:50;9.20;85.40
11264;DHT22;5689;48.798;9.070;2022-12-18T10:59:18;9.60;76.80
11264;DHT22;5689;48.798;9.070;2022-12-18T11:01:49;4.50;85.80
11264;DHT22;5689;48.798;9.070;2022-12-18T11:04:21;5.10;90.50
11264;DHT22;5689;48.798;9.070;2022-12-18T11:06:55;5.60;86.30
11264;DHT22;5689;48.798;9.070;2022-12-18T11:09:25;6.40;84.70
11264;DHT22;5689;48.798;9.070;2022-12-18T11:11:56;8.10;83.30
11264;DHT22;5689;48.798;9.070;2022-12-18T11:14:28;9.00;76.60
11264;DHT22;5689;48.798;9.070;2022-12-18T11:16:58;8.00;78.00
11264;DHT22;5689;48.798;9.070;2022-12-18T11:19:52;9.40;76.20
11264;DHT22;5689;48.798;9.070;2022-12-18T11:22:23;6.80;76.50
11264;DHT22;5689;48.798;9.070;2022-12-18T11:24:55;7.40;79.70
11264;DHT22;5689;48.798;9.070;2022-12-18T11:27:48;8.40;76.00
11264;DHT22;5689;48.798;9.070;2022-12-18T11:30:22;9.00;76.30
11264;DHT22;5689;48.798;9.070;2022-12-18T11:32:53;10.50;72.30
11264;DHT22;5689;48.798;9.070;2022-12-18T11:35:30;11.30;68.50
11264;DHT22;5689;48.798;9.070;2022-12-18T11:38:04;11.20;68.20
11264;DHT22;5689;48.798;9.070;2022-12-18T11:40:36;11.30;66.60
11264;DHT22;5689;48.798;9.070;2022-12-18T11:43:09;10.60;66.90
11264;DHT22;5689;48.798;9.070;2022-12-18T11:45:42;7.50;72.90
11264;DHT22;5689;48.798;9.070;2022-12-18T11:48:16;5.70;78.50
11264;DHT22;5689;48.798;9.070;2022-12-18T11:50:49;7.50;77.10
11264;DHT22;5689;48.798;9.070;2022-12-18T11:53:19;8.20;72.20
11264;DHT22;5689;48.798;9.070;2022-12-18T11:56:03;7.40;73.50
11264;DHT22;5689;48.798;9.070;2022-12-18T11:58:42;8.20;73.30
11264;DHT22;5689;48.798;9.070;2022-12-18T12:01:18;9.20;72.00
11264;DHT22;5689;48.798;9.070;2022-12-18T12:04:14;9.30;69.10
11264;DHT22;5689;48.798;9.070;2022-12-18T12:06:51;7.10;76.70
11264;DHT22;5689;48.798;9.070;2022-12-18T12:09:31;6.40;76.30
11264;DHT22;5689;48.798;9.070;2022-12-18T12:12:15;6.10;77.70
11264;DHT22;5689;48.798;9.070;2022-12-18T12:14:54;3.90;81.40
11264;DHT22;5689;48.798;9.070;2022-12-18T12:17:32;2.90;87.80
11264;DHT22;5689;48.798;9.070;2022-12-18T12:20:07;3.80;85.80
11264;DHT22;5689;48.798;9.070;2022-12-18T12:22:44;3.60;87.30
11264;DHT22;5689;48.798;9.070;2022-12-18T12:25:28;4.20;85.40
11264;DHT22;5689;48.798;9.070;2022-12-18T12:28:09;2.80;87.90
11264;DHT22;5689;48.798;9.070;2022-12-18T12:30:50;2.70;89.90
11264;DHT22;5689;48.798;9.070;2022-12-18T12:33:32;1.50;91.40
11264;DHT22;5689;48.798;9.070;2022-12-18T12:36:09;1.00;92.50
11264;DHT22;5689;48.798;9.070;2022-12-18T12:38:43;1.00;93.00
11264;DHT22;5689;48.798;9.070;2022-12-18T12:41:19;0.60;94.10
11264;DHT22;5689;48.798;9.070;2022-12-18T12:44:08;0.70;95.20
11264;DHT22;5689;48.798;9.070;2022-12-18T12:46:41;0.70;95.20
11264;DHT22;5689;48.798;9.070;2022-12-18T12:49:14;0.10;96.40
11264;DHT22;5689;48.798;9.070;2022-12-18T12:51:45;0.50;97.30
11264;DHT22;5689;48.798;9.070;2022-12-18T12:54:17;0.70;97.20
11264;DHT22;5689;48.798;9.070;2022-12-18T12:56:51;0.20;98.40
11264;DHT22;5689;48.798;9.070;2022-12-18T12:59:29;0.50;98.20
11264;DHT22;5689;48.798;9.070;2022-12-18T13:02:04;0.50;98.40
11264;DHT22;5689;48.798;9.070;2022-12-18T13:04:37;0.40;98.60
11264;DHT22;5689;48.798;9.070;2022-12-18T13:07:12;0.40;98.60
11264;DHT22;5689;48.798;9.070;2022-12-18T13:10:22;0.40;99.80
11264;DHT22;5689;48.798;9.070;2022-12-18T13:12:55;1.20;99.00
11264;DHT22;5689;48.798;9.070;2022-12-18T13:15:26;1.70;96.90
11264;DHT22;5689;48.798;9.070;2022-12-18T13:18:20;0.80;98.00
11264;DHT22;5689;48.798;9.070;2022-12-18T13:20:50;0.60;99.20
11264;DHT22;5689;48.798;9.070;2022-12-18T13:23:29;0.40;99.90
11264;DHT22;5689;48.798;9.070;2022-12-18T13:26:00;0.70;99.80
11264;DHT22;5689;48.798;9.070;2022-12-18T13:28:53;0.10;99.90
11264;DHT22;5689;48.798;9.070;2022-12-18T13:31:58;0.00;99.90
11264;DHT22;5689;48.798;9.070;2022-12-18T13:34:27;0.30;99.90
11264;DHT22;5689;48.798;9.070;2022-12-18T13:43:27;0.40;99.90
11264;DHT22;5689;48.798;9.070;2022-12-18T13:46:05;0.10;99.90
11264;DHT22;5689;48.798;9.070;2022-12-18T13:48:36;0.80;99.90
11264;DHT22;5689;48.798;9.070;2022-12-18T13:51:06;0.00;99.90
11264;DHT22;5689;48.798;9.070;2022-12-18T13:53:39;-0.20;99.90
11264;DHT22;5689;48.798;9.070;2022-12-18T13:56:15;-0.30;99.90
11264;DHT22;5689;48.798;9.070;2022-12-18T13:58:45;-0.20;99.90
11264;DHT22;5689;48.798;9.070;2022-12-18T14:01:22;-0.10;99.90
11264;DHT22;5689;48.798;9.070;2022-12-18T14:04:08;-0.30;99.90
11264;DHT22;5689;48.798;9.070;2022-12-18T14:06:37;-0.60;99.90
11264;DHT22;5689;48.798;9.070;2022-12-18T14:09:05;-0.30;99.90
11264;DHT22;5689;48.798;9.070;2022-12-18T14:11:33;-0.30;99.90
11264;DHT22;5689;48.798;9.070;2022-12-18T14:14:02;-0.60;99.90
11264;DHT22;5689;48.798;9.070;2022-12-18T14:16:34;-0.90;99.90
11264;DHT22;5689;48.798;9.070;2022-12-18T14:19:02;-1.30;99.90
11264;DHT22;5689;48.798;9.070;2022-12-18T14:21:30;-1.30;99.90
11264;DHT22;5689;48.798;9.070;2022-12-18T14:24:06;-1.40;99.90
11264;DHT22;5689;48.798;9.070;2022-12-18T14:26:39;-1.50;99.90
11264;DHT22;5689;48.798;9.070;2022-12-18T14:29:24;-1.50;99.90
11264;DHT22;5689;48.798;9.070;2022-12-18T14:32:06;-1.60;99.90
11264;DHT22;5689;48.798;9.070;2022-12-18T14:34:37;-1.40;99.90
11264;DHT22;5689;48.798;9.070;2022-12-18T14:37:08;-1.60;99.90
11264;DHT22;5689;48.798;9.070;2022-12-18T14:39:37;-1.80;99.90
11264;DHT22;5689;48.798;9.070;2022-12-18T14:42:05;-1.90;99.90
11264;DHT22;5689;48.798;9.070;2022-12-18T14:44:34;-2.00;99.90
11264;DHT22;5689;48.798;9.070;2022-12-18T14:47:13;-2.20;99.90
11264;DHT22;5689;48.798;9.070;2022-12-18T14:49:42;-2.30;99.90
11264;DHT22;5689;48.798;9.070;2022-12-18T14:52:22;-2.20;99.90
11264;DHT22;5689;48.798;9.070;2022-12-18T14:54:52;-2.40;99.90
11264;DHT22;5689;48.798;9.070;2022-12-18T14:57:22;-2.40;99.90
11264;DHT22;5689;48.798;9.070;2022-12-18T14:59:52;-2.30;99.90
11264;DHT22;5689;48.798;9.070;2022-12-18T15:02:22;-2.30;99.90
11264;DHT22;5689;48.798;9.070;2022-12-18T15:05:00;-2.30;99.90
11264;DHT22;5689;48.798;9.070;2022-12-18T15:07:40;-2.30;99.90
11264;DHT22;5689;48.798;9.070;2022-12-18T15:10:12;-2.50;99.90
11264;DHT22;5689;48.798;9.070;2022-12-18T15:12:42;-2.50;99.90
11264;DHT22;5689;48.798;9.070;2022-12-18T15:15:46;-2.60;99.90
11264;DHT22;5689;48.798;9.070;2022-12-18T15:18:16;-2.70;99.90
11264;DHT22;5689;48.798;9.070;2022-12-18T15:20:48;-2.70;99.90
11264;DHT22;5689;48.798;9.070;2022-12-18T15:23:19;-2.80;99.90
11264;DHT22;5689;48.798;9.070;2022-12-18T15:25:54;-3.00;99.90
11264;DHT22;5689;48.798;9.070;2022-12-18T15:28:25;-3.00;99.90
11264;DHT22;5689;48.798;9.070;2022-12-18T15:31:04;-3.00;99.90
11264;DHT22;5689;48.798;9.070;2022-12-18T15:33:34;-3.20;99.90
11264;DHT22;5689;48.798;9.070;2022-12-18T15:36:04;-3.10;99.90
11264;DHT22;5689;48.798;9.070;2022-12-18T15:38:33;-3.20;99.90
11264;DHT22;5689;48.798;9.070;2022-12-18T15:41:01;-3.20;99.90
11264;DHT22;5689;48.798;9.070;2022-12-18T15:43:29;-3.20;99.90
11264;DHT22;5689;48.798;9.070;2022-12-18T15:46:06;-3.30;99.90
11264;DHT22;5689;48.798;9.070;2022-12-18T15:48:37;-3.40;99.90
11264;DHT22;5689;48.798;9.070;2022-12-18T15:51:11;-3.40;99.90
11264;DHT22;5689;48.798;9.070;2022-12-18T15:53:41;-3.60;99.90
11264;DHT22;5689;48.798;9.070;2022-12-18T15:56:10;-3.80;99.90
11264;DHT22;5689;48.798;9.070;2022-12-18T15:58:56;-3.80;99.90
11264;DHT22;5689;48.798;9.070;2022-12-18T16:01:28;-3.70;99.90
11264;DHT22;5689;48.798;9.070;2022-12-18T16:03:56;-3.90;99.90
11264;DHT22;5689;48.798;9.070;2022-12-18T16:06:24;-3.70;99.90
11264;DHT22;5689;48.798;9.070;2022-12-18T16:08:52;-3.80;99.90
11264;DHT22;5689;48.798;9.070;2022-12-18T16:11:23;-3.80;99.90
11264;DHT22;5689;48.798;9.070;2022-12-18T16:14:16;-4.00;99.90
11264;DHT22;5689;48.798;9.070;2022-12-18T16:16:47;-4.10;99.90
11264;DHT22;5689;48.798;9.070;2022-12-18T16:19:15;-4.10;99.90
11264;DHT22;5689;48.798;9.070;2022-12-18T16:21:43;-4.10;99.90